createdAt,value
2022-10-19T00:13:30.412Z,2.4
2022-10-19T00:28:39.368Z,2.3
2022-10-19T00:43:48.776Z,2.1
2022-10-19T00:58:58.263Z,2.3
2022-10-19T01:14:13.765Z,2.3
2022-10-19T01:29:22.705Z,2.4
2022-10-19T01:44:31.892Z,2
2022-10-19T01:59:40.842Z,2.5
2022-10-19T02:14:50.460Z,2.4
2022-10-19T02:29:59.687Z,2.3
2022-10-19T02:45:09.400Z,1.9
2022-10-19T03:00:18.732Z,2.6
2022-10-19T03:15:30.206Z,3.1
2022-10-19T03:30:39.606Z,2.3
2022-10-19T03:45:48.914Z,2.8
2022-10-19T04:00:58.708Z,2.3
2022-10-19T04:16:08.268Z,2.7
2022-10-19T04:31:17.338Z,2.2
2022-10-19T04:46:26.747Z,2.8
2022-10-19T05:01:36.042Z,2.2
2022-10-19T05:16:45.494Z,3.2
2022-10-19T05:31:54.762Z,3
2022-10-19T05:47:04.241Z,3.4
2022-10-19T06:02:13.792Z,2.7
2022-10-19T06:17:25.558Z,3
2022-10-19T06:32:35.297Z,2.8
2022-10-19T06:47:44.863Z,3.3
2022-10-19T07:02:54.631Z,2.3
2022-10-19T07:18:04.509Z,2.2
2022-10-19T07:33:13.796Z,2.7
2022-10-19T07:48:24.582Z,2.1
2022-10-19T08:20:21.807Z,1.8
2022-10-19T08:35:31.759Z,2.1
2022-10-19T08:50:41.210Z,1.8
2022-10-19T09:05:51.456Z,1.9
2022-10-19T09:21:00.627Z,1.8
2022-10-19T09:36:33.221Z,1.8
2022-10-19T09:52:01.265Z,2.1
2022-10-19T10:07:10.910Z,2.2
2022-10-19T10:22:20.511Z,3.2
2022-10-19T10:37:30.290Z,2.3
2022-10-19T10:52:39.641Z,2.2
2022-10-19T11:07:49.781Z,3
2022-10-19T11:22:59.559Z,2.1
2022-10-19T11:38:22.652Z,1.9
2022-10-19T11:53:40.303Z,1.8
2022-10-19T12:08:55.392Z,1.9
2022-10-19T12:24:06.989Z,2.1
2022-10-19T12:39:16.434Z,2.3
2022-10-19T12:54:26.007Z,2.1
2022-10-19T13:09:35.445Z,2.4
2022-10-19T13:24:46.482Z,3.1
2022-10-19T13:39:57.000Z,2.3
2022-10-19T13:55:05.337Z,2.4
2022-10-19T14:10:14.444Z,1.9
2022-10-19T14:25:25.919Z,2.1
2022-10-19T14:40:34.948Z,2.6
2022-10-19T14:55:43.650Z,2.6
2022-10-19T15:10:53.350Z,2.9
2022-10-19T15:26:02.277Z,2.8
2022-10-19T15:41:11.876Z,2.6
2022-10-19T15:56:21.096Z,2.9
2022-10-19T16:11:30.131Z,3.6
2022-10-19T16:26:39.004Z,4.4
2022-10-19T16:41:48.480Z,3.5
2022-10-19T16:56:57.737Z,3.6
2022-10-19T17:12:07.205Z,3.9
2022-10-19T17:27:16.916Z,4.4
2022-10-19T17:42:26.622Z,3.1
2022-10-19T17:57:36.879Z,2.9
2022-10-19T18:12:47.507Z,2.9
2022-10-19T18:27:56.616Z,2.7
2022-10-19T18:43:06.048Z,2.5
2022-10-19T18:58:16.268Z,3.2
2022-10-19T19:13:25.810Z,3.4
2022-10-19T19:28:41.358Z,4.4
2022-10-19T19:43:57.105Z,3.3
2022-10-19T19:59:06.372Z,3
2022-10-19T20:14:15.916Z,3.3
2022-10-19T20:29:26.946Z,3.7
2022-10-19T20:44:36.257Z,2.9
2022-10-19T20:59:45.872Z,3
2022-10-19T21:14:55.806Z,4.4
2022-10-19T21:30:04.632Z,3.5
2022-10-19T21:45:31.102Z,3.5
2022-10-19T22:00:41.858Z,3.4
2022-10-19T22:15:51.319Z,3.4
2022-10-19T22:31:01.000Z,3.4
2022-10-19T22:46:10.218Z,3.9
2022-10-19T23:01:19.843Z,4
2022-10-19T23:16:30.035Z,5.3
2022-10-19T23:31:39.357Z,4.4
2022-10-19T23:46:48.638Z,4.2
